sensor_id;sensor_type;location;lat;lon;timestamp;P1;durP1;ratioP1;P2;durP2;ratioP2
12956;SDS011;6543;48.836;10.092;2023-07-02T00:00:09;5.53;;;2.43;;
12956;SDS011;6543;48.836;10.092;2023-07-02T00:02:37;2.37;;;2.00;;
12956;SDS011;6543;48.836;10.092;2023-07-02T00:05:04;3.10;;;2.80;;
12956;SDS011;6543;48.836;10.092;2023-07-02T00:07:31;2.83;;;2.63;;
12956;SDS011;6543;48.836;10.092;2023-07-02T00:09:59;4.23;;;2.57;;
12956;SDS011;6543;48.836;10.092;2023-07-02T00:12:27;4.10;;;2.97;;
12956;SDS011;6543;48.836;10.092;2023-07-02T00:14:54;3.13;;;2.83;;
12956;SDS011;6543;48.836;10.092;2023-07-02T00:17:21;4.93;;;2.63;;
12956;SDS011;6543;48.836;10.092;2023-07-02T00:19:48;3.70;;;3.30;;
12956;SDS011;6543;48.836;10.092;2023-07-02T00:22:16;3.10;;;2.83;;
12956;SDS011;6543;48.836;10.092;2023-07-02T00:24:43;3.80;;;3.10;;
12956;SDS011;6543;48.836;10.092;2023-07-02T00:27:10;3.57;;;3.27;;
12956;SDS011;6543;48.836;10.092;2023-07-02T00:29:38;5.63;;;3.27;;
12956;SDS011;6543;48.836;10.092;2023-07-02T00:32:05;4.43;;;3.40;;
12956;SDS011;6543;48.836;10.092;2023-07-02T00:34:32;3.43;;;3.10;;
12956;SDS011;6543;48.836;10.092;2023-07-02T00:36:59;3.07;;;2.77;;
12956;SDS011;6543;48.836;10.092;2023-07-02T00:39:26;3.27;;;2.80;;
12956;SDS011;6543;48.836;10.092;2023-07-02T00:41:52;2.63;;;2.43;;
12956;SDS011;6543;48.836;10.092;2023-07-02T00:44:19;3.90;;;3.07;;
12956;SDS011;6543;48.836;10.092;2023-07-02T00:46:47;3.70;;;2.80;;
12956;SDS011;6543;48.836;10.092;2023-07-02T00:49:14;3.63;;;3.40;;
12956;SDS011;6543;48.836;10.092;2023-07-02T00:51:41;5.00;;;3.00;;
12956;SDS011;6543;48.836;10.092;2023-07-02T00:54:08;3.00;;;2.80;;
12956;SDS011;6543;48.836;10.092;2023-07-02T00:56:35;3.00;;;2.77;;
12956;SDS011;6543;48.836;10.092;2023-07-02T00:59:02;3.77;;;2.80;;
12956;SDS011;6543;48.836;10.092;2023-07-02T01:01:29;3.43;;;2.77;;
12956;SDS011;6543;48.836;10.092;2023-07-02T01:04:00;3.90;;;2.50;;
12956;SDS011;6543;48.836;10.092;2023-07-02T01:06:28;2.63;;;2.43;;
12956;SDS011;6543;48.836;10.092;2023-07-02T01:08:56;2.57;;;2.40;;
12956;SDS011;6543;48.836;10.092;2023-07-02T01:11:25;2.93;;;2.53;;
12956;SDS011;6543;48.836;10.092;2023-07-02T01:13:55;3.37;;;2.10;;
12956;SDS011;6543;48.836;10.092;2023-07-02T01:16:25;2.47;;;2.27;;
12956;SDS011;6543;48.836;10.092;2023-07-02T01:18:55;6.67;;;2.43;;
12956;SDS011;6543;48.836;10.092;2023-07-02T01:21:24;5.27;;;3.03;;
12956;SDS011;6543;48.836;10.092;2023-07-02T01:23:52;2.80;;;2.50;;
12956;SDS011;6543;48.836;10.092;2023-07-02T01:26:20;2.50;;;2.30;;
12956;SDS011;6543;48.836;10.092;2023-07-02T01:28:46;3.60;;;3.30;;
12956;SDS011;6543;48.836;10.092;2023-07-02T01:31:13;2.50;;;2.30;;
12956;SDS011;6543;48.836;10.092;2023-07-02T01:33:40;3.10;;;2.80;;
12956;SDS011;6543;48.836;10.092;2023-07-02T01:36:07;3.40;;;2.10;;
12956;SDS011;6543;48.836;10.092;2023-07-02T01:38:36;2.67;;;2.37;;
12956;SDS011;6543;48.836;10.092;2023-07-02T01:41:03;3.47;;;2.70;;
12956;SDS011;6543;48.836;10.092;2023-07-02T01:43:30;5.53;;;2.60;;
12956;SDS011;6543;48.836;10.092;2023-07-02T01:45:56;2.93;;;2.50;;
12956;SDS011;6543;48.836;10.092;2023-07-02T01:48:24;3.10;;;2.60;;
12956;SDS011;6543;48.836;10.092;2023-07-02T01:50:51;5.17;;;2.40;;
12956;SDS011;6543;48.836;10.092;2023-07-02T01:53:18;3.83;;;2.60;;
12956;SDS011;6543;48.836;10.092;2023-07-02T01:55:46;3.40;;;3.20;;
12956;SDS011;6543;48.836;10.092;2023-07-02T01:58:13;2.60;;;2.40;;
12956;SDS011;6543;48.836;10.092;2023-07-02T02:00:40;3.10;;;2.53;;
12956;SDS011;6543;48.836;10.092;2023-07-02T02:03:06;4.53;;;2.63;;
12956;SDS011;6543;48.836;10.092;2023-07-02T02:05:33;2.40;;;2.20;;
12956;SDS011;6543;48.836;10.092;2023-07-02T02:08:00;3.70;;;2.60;;
12956;SDS011;6543;48.836;10.092;2023-07-02T02:10:27;4.90;;;2.83;;
12956;SDS011;6543;48.836;10.092;2023-07-02T02:12:55;5.40;;;2.73;;
12956;SDS011;6543;48.836;10.092;2023-07-02T02:15:22;3.43;;;2.57;;
12956;SDS011;6543;48.836;10.092;2023-07-02T02:17:48;4.80;;;2.93;;
12956;SDS011;6543;48.836;10.092;2023-07-02T02:20:16;3.80;;;2.67;;
12956;SDS011;6543;48.836;10.092;2023-07-02T02:22:43;5.57;;;2.80;;
12956;SDS011;6543;48.836;10.092;2023-07-02T02:25:09;3.00;;;2.70;;
12956;SDS011;6543;48.836;10.092;2023-07-02T02:27:36;4.50;;;2.70;;
12956;SDS011;6543;48.836;10.092;2023-07-02T02:30:05;3.53;;;2.40;;
12956;SDS011;6543;48.836;10.092;2023-07-02T02:32:33;4.20;;;2.73;;
12956;SDS011;6543;48.836;10.092;2023-07-02T02:35:00;5.00;;;2.73;;
12956;SDS011;6543;48.836;10.092;2023-07-02T02:37:27;2.83;;;2.63;;
12956;SDS011;6543;48.836;10.092;2023-07-02T02:39:55;3.10;;;2.47;;
12956;SDS011;6543;48.836;10.092;2023-07-02T02:42:22;3.00;;;2.60;;
12956;SDS011;6543;48.836;10.092;2023-07-02T02:44:49;4.87;;;2.90;;
12956;SDS011;6543;48.836;10.092;2023-07-02T02:47:17;5.00;;;2.70;;
12956;SDS011;6543;48.836;10.092;2023-07-02T02:49:44;3.83;;;3.40;;
12956;SDS011;6543;48.836;10.092;2023-07-02T02:52:11;4.73;;;2.37;;
12956;SDS011;6543;48.836;10.092;2023-07-02T02:54:39;2.90;;;2.70;;
12956;SDS011;6543;48.836;10.092;2023-07-02T02:57:06;3.97;;;2.90;;
12956;SDS011;6543;48.836;10.092;2023-07-02T02:59:33;3.90;;;3.07;;
12956;SDS011;6543;48.836;10.092;2023-07-02T03:02:00;2.80;;;2.60;;
12956;SDS011;6543;48.836;10.092;2023-07-02T03:04:28;3.77;;;2.83;;
12956;SDS011;6543;48.836;10.092;2023-07-02T03:06:54;4.33;;;2.90;;
12956;SDS011;6543;48.836;10.092;2023-07-02T03:09:21;3.47;;;3.17;;
12956;SDS011;6543;48.836;10.092;2023-07-02T03:11:48;4.17;;;2.83;;
12956;SDS011;6543;48.836;10.092;2023-07-02T03:14:15;4.03;;;2.70;;
12956;SDS011;6543;48.836;10.092;2023-07-02T03:16:42;2.70;;;2.50;;
12956;SDS011;6543;48.836;10.092;2023-07-02T03:19:10;3.03;;;2.83;;
12956;SDS011;6543;48.836;10.092;2023-07-02T03:21:41;4.23;;;2.80;;
12956;SDS011;6543;48.836;10.092;2023-07-02T03:24:08;3.40;;;2.47;;
12956;SDS011;6543;48.836;10.092;2023-07-02T03:26:36;6.07;;;2.63;;
12956;SDS011;6543;48.836;10.092;2023-07-02T03:29:03;3.10;;;2.73;;
12956;SDS011;6543;48.836;10.092;2023-07-02T03:31:30;3.07;;;2.47;;
12956;SDS011;6543;48.836;10.092;2023-07-02T03:33:57;3.37;;;2.60;;
12956;SDS011;6543;48.836;10.092;2023-07-02T03:36:24;4.67;;;2.40;;
12956;SDS011;6543;48.836;10.092;2023-07-02T03:38:52;5.00;;;2.47;;
12956;SDS011;6543;48.836;10.092;2023-07-02T03:41:19;6.07;;;2.90;;
12956;SDS011;6543;48.836;10.092;2023-07-02T03:43:45;7.33;;;3.17;;
12956;SDS011;6543;48.836;10.092;2023-07-02T03:46:13;4.27;;;2.37;;
12956;SDS011;6543;48.836;10.092;2023-07-02T03:48:40;2.50;;;2.30;;
12956;SDS011;6543;48.836;10.092;2023-07-02T03:51:07;2.30;;;2.13;;
12956;SDS011;6543;48.836;10.092;2023-07-02T03:53:34;6.93;;;2.13;;
12956;SDS011;6543;48.836;10.092;2023-07-02T03:56:02;3.93;;;2.43;;
12956;SDS011;6543;48.836;10.092;2023-07-02T03:58:29;2.57;;;2.27;;
12956;SDS011;6543;48.836;10.092;2023-07-02T04:00:55;3.00;;;2.27;;
12956;SDS011;6543;48.836;10.092;2023-07-02T04:03:22;5.03;;;1.97;;
12956;SDS011;6543;48.836;10.092;2023-07-02T04:05:49;2.70;;;2.20;;
12956;SDS011;6543;48.836;10.092;2023-07-02T04:08:16;2.27;;;2.10;;
12956;SDS011;6543;48.836;10.092;2023-07-02T04:10:43;5.37;;;2.50;;
12956;SDS011;6543;48.836;10.092;2023-07-02T04:13:11;2.50;;;2.30;;
12956;SDS011;6543;48.836;10.092;2023-07-02T04:15:38;2.40;;;2.20;;
12956;SDS011;6543;48.836;10.092;2023-07-02T04:18:05;3.33;;;2.37;;
12956;SDS011;6543;48.836;10.092;2023-07-02T04:20:31;2.33;;;1.83;;
12956;SDS011;6543;48.836;10.092;2023-07-02T04:22:58;6.77;;;2.30;;
12956;SDS011;6543;48.836;10.092;2023-07-02T04:25:25;1.97;;;1.87;;
12956;SDS011;6543;48.836;10.092;2023-07-02T04:27:52;3.13;;;2.13;;
12956;SDS011;6543;48.836;10.092;2023-07-02T04:30:23;3.93;;;2.07;;
12956;SDS011;6543;48.836;10.092;2023-07-02T04:32:50;4.63;;;2.03;;
12956;SDS011;6543;48.836;10.092;2023-07-02T04:35:17;3.50;;;2.57;;
12956;SDS011;6543;48.836;10.092;2023-07-02T04:37:44;3.13;;;2.80;;
12956;SDS011;6543;48.836;10.092;2023-07-02T04:40:11;3.07;;;2.37;;
12956;SDS011;6543;48.836;10.092;2023-07-02T04:42:39;2.10;;;2.00;;
12956;SDS011;6543;48.836;10.092;2023-07-02T04:45:12;4.13;;;2.37;;
12956;SDS011;6543;48.836;10.092;2023-07-02T04:47:41;3.27;;;2.90;;
12956;SDS011;6543;48.836;10.092;2023-07-02T04:50:08;3.17;;;2.87;;
12956;SDS011;6543;48.836;10.092;2023-07-02T04:52:35;5.90;;;3.50;;
12956;SDS011;6543;48.836;10.092;2023-07-02T04:55:02;5.20;;;3.47;;
12956;SDS011;6543;48.836;10.092;2023-07-02T04:57:30;3.73;;;3.30;;
12956;SDS011;6543;48.836;10.092;2023-07-02T04:59:57;4.67;;;3.20;;
12956;SDS011;6543;48.836;10.092;2023-07-02T05:02:24;4.40;;;3.20;;
12956;SDS011;6543;48.836;10.092;2023-07-02T05:04:52;5.03;;;3.30;;
12956;SDS011;6543;48.836;10.092;2023-07-02T05:07:19;4.17;;;3.60;;
12956;SDS011;6543;48.836;10.092;2023-07-02T05:09:45;5.00;;;3.33;;
12956;SDS011;6543;48.836;10.092;2023-07-02T05:12:13;6.03;;;4.70;;
12956;SDS011;6543;48.836;10.092;2023-07-02T05:14:40;6.80;;;4.37;;
12956;SDS011;6543;48.836;10.092;2023-07-02T05:17:07;5.77;;;4.37;;
12956;SDS011;6543;48.836;10.092;2023-07-02T05:19:34;5.83;;;4.33;;
12956;SDS011;6543;48.836;10.092;2023-07-02T05:22:02;5.00;;;4.50;;
12956;SDS011;6543;48.836;10.092;2023-07-02T05:24:29;6.83;;;4.83;;
12956;SDS011;6543;48.836;10.092;2023-07-02T05:26:56;7.23;;;5.30;;
12956;SDS011;6543;48.836;10.092;2023-07-02T05:29:23;5.93;;;5.10;;
12956;SDS011;6543;48.836;10.092;2023-07-02T05:31:49;12.87;;;6.17;;
12956;SDS011;6543;48.836;10.092;2023-07-02T05:34:16;11.23;;;6.80;;
12956;SDS011;6543;48.836;10.092;2023-07-02T05:36:43;8.93;;;6.57;;
12956;SDS011;6543;48.836;10.092;2023-07-02T05:39:11;8.63;;;6.83;;
12956;SDS011;6543;48.836;10.092;2023-07-02T05:41:38;10.57;;;7.70;;
12956;SDS011;6543;48.836;10.092;2023-07-02T05:44:05;10.17;;;7.20;;
12956;SDS011;6543;48.836;10.092;2023-07-02T05:46:32;9.07;;;6.37;;
12956;SDS011;6543;48.836;10.092;2023-07-02T05:48:59;15.47;;;8.77;;
12956;SDS011;6543;48.836;10.092;2023-07-02T05:51:26;14.63;;;8.23;;
12956;SDS011;6543;48.836;10.092;2023-07-02T05:53:52;15.10;;;8.30;;
12956;SDS011;6543;48.836;10.092;2023-07-02T05:56:21;12.80;;;7.47;;
12956;SDS011;6543;48.836;10.092;2023-07-02T05:58:48;15.73;;;8.50;;
12956;SDS011;6543;48.836;10.092;2023-07-02T06:01:15;10.20;;;7.40;;
12956;SDS011;6543;48.836;10.092;2023-07-02T06:03:42;13.73;;;8.43;;
12956;SDS011;6543;48.836;10.092;2023-07-02T06:06:10;11.87;;;7.40;;
12956;SDS011;6543;48.836;10.092;2023-07-02T06:08:37;16.27;;;7.27;;
12956;SDS011;6543;48.836;10.092;2023-07-02T06:11:04;11.40;;;7.63;;
12956;SDS011;6543;48.836;10.092;2023-07-02T06:13:32;11.83;;;7.73;;
12956;SDS011;6543;48.836;10.092;2023-07-02T06:15:59;12.13;;;7.50;;
12956;SDS011;6543;48.836;10.092;2023-07-02T06:18:26;12.00;;;7.47;;
12956;SDS011;6543;48.836;10.092;2023-07-02T06:20:52;13.33;;;7.67;;
12956;SDS011;6543;48.836;10.092;2023-07-02T06:23:19;12.07;;;6.07;;
12956;SDS011;6543;48.836;10.092;2023-07-02T06:25:46;9.77;;;6.43;;
12956;SDS011;6543;48.836;10.092;2023-07-02T06:28:13;10.80;;;5.67;;
12956;SDS011;6543;48.836;10.092;2023-07-02T06:30:41;9.40;;;5.57;;
12956;SDS011;6543;48.836;10.092;2023-07-02T06:33:08;9.17;;;5.40;;
12956;SDS011;6543;48.836;10.092;2023-07-02T06:35:35;9.67;;;5.33;;
12956;SDS011;6543;48.836;10.092;2023-07-02T06:38:02;8.87;;;5.50;;
12956;SDS011;6543;48.836;10.092;2023-07-02T06:40:29;8.20;;;5.97;;
12956;SDS011;6543;48.836;10.092;2023-07-02T06:42:55;9.50;;;5.13;;
12956;SDS011;6543;48.836;10.092;2023-07-02T06:45:22;8.27;;;5.50;;
12956;SDS011;6543;48.836;10.092;2023-07-02T06:47:50;6.47;;;4.47;;
12956;SDS011;6543;48.836;10.092;2023-07-02T06:50:17;7.50;;;4.37;;
12956;SDS011;6543;48.836;10.092;2023-07-02T06:52:44;9.07;;;4.50;;
12956;SDS011;6543;48.836;10.092;2023-07-02T06:55:11;7.97;;;4.97;;
12956;SDS011;6543;48.836;10.092;2023-07-02T06:57:41;6.80;;;4.10;;
12956;SDS011;6543;48.836;10.092;2023-07-02T07:00:09;7.27;;;4.53;;
12956;SDS011;6543;48.836;10.092;2023-07-02T07:02:37;7.53;;;4.63;;
12956;SDS011;6543;48.836;10.092;2023-07-02T07:05:05;10.67;;;5.83;;
12956;SDS011;6543;48.836;10.092;2023-07-02T07:07:33;8.13;;;5.13;;
12956;SDS011;6543;48.836;10.092;2023-07-02T07:10:00;7.73;;;5.53;;
12956;SDS011;6543;48.836;10.092;2023-07-02T07:12:28;14.23;;;5.80;;
12956;SDS011;6543;48.836;10.092;2023-07-02T07:14:55;10.37;;;5.50;;
12956;SDS011;6543;48.836;10.092;2023-07-02T07:17:22;8.63;;;5.70;;
12956;SDS011;6543;48.836;10.092;2023-07-02T07:19:49;12.30;;;6.37;;
12956;SDS011;6543;48.836;10.092;2023-07-02T07:22:17;9.47;;;5.43;;
12956;SDS011;6543;48.836;10.092;2023-07-02T07:24:44;8.40;;;5.50;;
12956;SDS011;6543;48.836;10.092;2023-07-02T07:27:10;9.10;;;5.60;;
12956;SDS011;6543;48.836;10.092;2023-07-02T07:29:37;8.80;;;6.37;;
12956;SDS011;6543;48.836;10.092;2023-07-02T07:32:05;8.73;;;5.10;;
12956;SDS011;6543;48.836;10.092;2023-07-02T07:34:32;11.67;;;6.07;;
12956;SDS011;6543;48.836;10.092;2023-07-02T07:36:59;10.90;;;6.63;;
12956;SDS011;6543;48.836;10.092;2023-07-02T07:39:27;11.50;;;5.47;;
12956;SDS011;6543;48.836;10.092;2023-07-02T07:41:54;11.97;;;7.57;;
12956;SDS011;6543;48.836;10.092;2023-07-02T07:44:21;11.37;;;7.77;;
12956;SDS011;6543;48.836;10.092;2023-07-02T07:46:48;9.03;;;6.33;;
12956;SDS011;6543;48.836;10.092;2023-07-02T07:49:14;10.77;;;6.57;;
12956;SDS011;6543;48.836;10.092;2023-07-02T07:51:41;11.87;;;6.57;;
12956;SDS011;6543;48.836;10.092;2023-07-02T07:54:08;15.63;;;7.30;;
12956;SDS011;6543;48.836;10.092;2023-07-02T07:56:36;11.67;;;6.80;;
12956;SDS011;6543;48.836;10.092;2023-07-02T07:59:03;15.80;;;7.50;;
12956;SDS011;6543;48.836;10.092;2023-07-02T08:01:30;11.93;;;6.87;;
12956;SDS011;6543;48.836;10.092;2023-07-02T08:03:56;15.70;;;7.43;;
12956;SDS011;6543;48.836;10.092;2023-07-02T08:06:23;14.33;;;7.20;;
12956;SDS011;6543;48.836;10.092;2023-07-02T08:08:50;13.90;;;7.10;;
12956;SDS011;6543;48.836;10.092;2023-07-02T08:11:17;14.43;;;6.87;;
12956;SDS011;6543;48.836;10.092;2023-07-02T08:13:45;13.70;;;6.53;;
12956;SDS011;6543;48.836;10.092;2023-07-02T08:16:12;11.00;;;7.77;;
12956;SDS011;6543;48.836;10.092;2023-07-02T08:18:39;20.27;;;9.43;;
12956;SDS011;6543;48.836;10.092;2023-07-02T08:21:05;15.83;;;8.10;;
12956;SDS011;6543;48.836;10.092;2023-07-02T08:23:32;15.63;;;6.43;;
12956;SDS011;6543;48.836;10.092;2023-07-02T08:25:59;15.43;;;8.50;;
12956;SDS011;6543;48.836;10.092;2023-07-02T08:28:26;13.60;;;8.70;;
12956;SDS011;6543;48.836;10.092;2023-07-02T08:30:55;13.00;;;8.30;;
12956;SDS011;6543;48.836;10.092;2023-07-02T08:33:21;13.43;;;8.37;;
12956;SDS011;6543;48.836;10.092;2023-07-02T08:35:49;11.70;;;7.70;;
12956;SDS011;6543;48.836;10.092;2023-07-02T08:38:16;13.30;;;8.17;;
12956;SDS011;6543;48.836;10.092;2023-07-02T08:40:42;12.55;;;6.80;;
12956;SDS011;6543;48.836;10.092;2023-07-02T08:43:09;11.65;;;7.65;;
12956;SDS011;6543;48.836;10.092;2023-07-02T08:45:36;12.37;;;8.60;;
12956;SDS011;6543;48.836;10.092;2023-07-02T08:48:05;13.73;;;8.30;;
12956;SDS011;6543;48.836;10.092;2023-07-02T08:50:32;13.95;;;8.10;;
12956;SDS011;6543;48.836;10.092;2023-07-02T08:52:59;14.45;;;8.55;;
12956;SDS011;6543;48.836;10.092;2023-07-02T08:55:26;12.70;;;8.20;;
12956;SDS011;6543;48.836;10.092;2023-07-02T08:57:55;18.45;;;8.25;;
12956;SDS011;6543;48.836;10.092;2023-07-02T09:00:25;12.50;;;8.18;;
12956;SDS011;6543;48.836;10.092;2023-07-02T09:02:52;14.57;;;8.57;;
12956;SDS011;6543;48.836;10.092;2023-07-02T09:05:20;15.77;;;9.32;;
12956;SDS011;6543;48.836;10.092;2023-07-02T09:07:48;15.23;;;9.00;;
12956;SDS011;6543;48.836;10.092;2023-07-02T09:10:25;12.55;;;8.45;;
12956;SDS011;6543;48.836;10.092;2023-07-02T09:13:02;14.00;;;8.43;;
12956;SDS011;6543;48.836;10.092;2023-07-02T09:15:34;16.20;;;8.77;;
12956;SDS011;6543;48.836;10.092;2023-07-02T09:18:02;33.13;;;9.02;;
12956;SDS011;6543;48.836;10.092;2023-07-02T09:20:41;16.73;;;9.23;;
12956;SDS011;6543;48.836;10.092;2023-07-02T09:23:08;13.18;;;8.02;;
12956;SDS011;6543;48.836;10.092;2023-07-02T09:25:36;16.93;;;9.57;;
12956;SDS011;6543;48.836;10.092;2023-07-02T09:28:13;15.10;;;8.82;;
12956;SDS011;6543;48.836;10.092;2023-07-02T09:30:48;17.15;;;9.45;;
12956;SDS011;6543;48.836;10.092;2023-07-02T09:33:16;20.00;;;9.38;;
12956;SDS011;6543;48.836;10.092;2023-07-02T09:35:44;16.83;;;9.70;;
12956;SDS011;6543;48.836;10.092;2023-07-02T09:38:11;20.83;;;10.88;;
12956;SDS011;6543;48.836;10.092;2023-07-02T09:40:45;15.38;;;9.00;;
12956;SDS011;6543;48.836;10.092;2023-07-02T09:43:13;15.68;;;9.77;;
12956;SDS011;6543;48.836;10.092;2023-07-02T09:45:42;15.85;;;10.40;;
12956;SDS011;6543;48.836;10.092;2023-07-02T09:48:12;22.50;;;10.23;;
12956;SDS011;6543;48.836;10.092;2023-07-02T09:50:40;15.43;;;9.77;;
12956;SDS011;6543;48.836;10.092;2023-07-02T09:53:09;18.55;;;10.40;;
12956;SDS011;6543;48.836;10.092;2023-07-02T09:55:36;14.38;;;8.63;;
12956;SDS011;6543;48.836;10.092;2023-07-02T09:58:04;18.88;;;10.63;;
12956;SDS011;6543;48.836;10.092;2023-07-02T10:00:31;17.17;;;10.75;;
12956;SDS011;6543;48.836;10.092;2023-07-02T10:02:58;22.90;;;10.70;;
12956;SDS011;6543;48.836;10.092;2023-07-02T10:05:25;18.38;;;10.63;;
12956;SDS011;6543;48.836;10.092;2023-07-02T10:07:53;18.60;;;10.43;;
12956;SDS011;6543;48.836;10.092;2023-07-02T10:10:28;18.23;;;10.73;;
12956;SDS011;6543;48.836;10.092;2023-07-02T10:12:56;18.35;;;10.38;;
12956;SDS011;6543;48.836;10.092;2023-07-02T10:15:24;15.52;;;9.35;;
12956;SDS011;6543;48.836;10.092;2023-07-02T10:17:54;17.40;;;9.77;;
12956;SDS011;6543;48.836;10.092;2023-07-02T10:20:31;16.52;;;10.02;;
12956;SDS011;6543;48.836;10.092;2023-07-02T10:22:59;15.93;;;9.32;;
12956;SDS011;6543;48.836;10.092;2023-07-02T10:25:27;18.77;;;10.30;;
12956;SDS011;6543;48.836;10.092;2023-07-02T10:27:56;18.33;;;9.80;;
12956;SDS011;6543;48.836;10.092;2023-07-02T10:30:31;16.70;;;10.40;;
12956;SDS011;6543;48.836;10.092;2023-07-02T10:33:08;16.90;;;11.10;;
12956;SDS011;6543;48.836;10.092;2023-07-02T10:35:39;18.38;;;11.73;;
12956;SDS011;6543;48.836;10.092;2023-07-02T10:38:07;18.30;;;11.15;;
12956;SDS011;6543;48.836;10.092;2023-07-02T10:40:41;18.17;;;9.68;;
12956;SDS011;6543;48.836;10.092;2023-07-02T10:43:08;19.30;;;11.27;;
12956;SDS011;6543;48.836;10.092;2023-07-02T10:45:35;21.02;;;11.40;;
12956;SDS011;6543;48.836;10.092;2023-07-02T10:48:02;16.85;;;10.35;;
12956;SDS011;6543;48.836;10.092;2023-07-02T10:50:30;20.95;;;11.45;;
12956;SDS011;6543;48.836;10.092;2023-07-02T10:55:26;21.83;;;10.60;;
12956;SDS011;6543;48.836;10.092;2023-07-02T10:58:04;17.95;;;9.93;;
12956;SDS011;6543;48.836;10.092;2023-07-02T11:00:32;22.42;;;12.57;;
12956;SDS011;6543;48.836;10.092;2023-07-02T11:03:15;20.85;;;10.95;;
12956;SDS011;6543;48.836;10.092;2023-07-02T11:05:42;15.95;;;10.40;;
12956;SDS011;6543;48.836;10.092;2023-07-02T11:08:09;17.70;;;10.32;;
12956;SDS011;6543;48.836;10.092;2023-07-02T11:10:36;16.25;;;10.20;;
12956;SDS011;6543;48.836;10.092;2023-07-02T11:13:11;15.48;;;9.93;;
12956;SDS011;6543;48.836;10.092;2023-07-02T11:15:38;17.15;;;10.70;;
12956;SDS011;6543;48.836;10.092;2023-07-02T11:18:09;16.73;;;10.77;;
12956;SDS011;6543;48.836;10.092;2023-07-02T11:20:37;14.45;;;9.18;;
12956;SDS011;6543;48.836;10.092;2023-07-02T11:23:04;17.98;;;11.25;;
12956;SDS011;6543;48.836;10.092;2023-07-02T11:25:42;20.33;;;11.05;;
12956;SDS011;6543;48.836;10.092;2023-07-02T11:28:21;19.02;;;10.68;;
12956;SDS011;6543;48.836;10.092;2023-07-02T11:30:47;17.15;;;9.90;;
12956;SDS011;6543;48.836;10.092;2023-07-02T11:33:14;19.58;;;10.93;;
12956;SDS011;6543;48.836;10.092;2023-07-02T11:35:41;18.45;;;10.98;;
12956;SDS011;6543;48.836;10.092;2023-07-02T11:38:08;17.90;;;8.93;;
12956;SDS011;6543;48.836;10.092;2023-07-02T11:40:35;21.60;;;10.48;;
12956;SDS011;6543;48.836;10.092;2023-07-02T11:43:02;31.65;;;11.98;;
12956;SDS011;6543;48.836;10.092;2023-07-02T11:45:32;19.85;;;10.75;;
12956;SDS011;6543;48.836;10.092;2023-07-02T11:47:59;14.00;;;9.63;;
12956;SDS011;6543;48.836;10.092;2023-07-02T11:50:26;18.23;;;10.48;;
12956;SDS011;6543;48.836;10.092;2023-07-02T11:52:55;17.90;;;11.27;;
12956;SDS011;6543;48.836;10.092;2023-07-02T11:55:22;19.25;;;11.77;;
12956;SDS011;6543;48.836;10.092;2023-07-02T11:57:49;18.48;;;11.25;;
12956;SDS011;6543;48.836;10.092;2023-07-02T12:00:15;20.88;;;11.43;;
12956;SDS011;6543;48.836;10.092;2023-07-02T12:02:44;17.20;;;11.20;;
12956;SDS011;6543;48.836;10.092;2023-07-02T12:05:11;16.67;;;10.90;;
12956;SDS011;6543;48.836;10.092;2023-07-02T12:07:37;21.77;;;12.25;;
12956;SDS011;6543;48.836;10.092;2023-07-02T12:10:05;18.17;;;11.75;;
12956;SDS011;6543;48.836;10.092;2023-07-02T12:12:33;18.52;;;12.30;;
12956;SDS011;6543;48.836;10.092;2023-07-02T12:15:00;18.92;;;11.30;;
12956;SDS011;6543;48.836;10.092;2023-07-02T12:17:27;19.30;;;11.27;;
12956;SDS011;6543;48.836;10.092;2023-07-02T12:19:56;18.45;;;11.70;;
12956;SDS011;6543;48.836;10.092;2023-07-02T12:22:23;17.02;;;12.43;;
12956;SDS011;6543;48.836;10.092;2023-07-02T12:24:50;14.82;;;11.10;;
12956;SDS011;6543;48.836;10.092;2023-07-02T12:27:18;25.75;;;12.32;;
12956;SDS011;6543;48.836;10.092;2023-07-02T12:29:45;19.38;;;11.93;;
12956;SDS011;6543;48.836;10.092;2023-07-02T12:32:13;22.58;;;13.52;;
12956;SDS011;6543;48.836;10.092;2023-07-02T12:34:40;15.57;;;11.35;;
12956;SDS011;6543;48.836;10.092;2023-07-02T12:37:08;23.05;;;12.60;;
12956;SDS011;6543;48.836;10.092;2023-07-02T12:39:35;20.05;;;12.85;;
12956;SDS011;6543;48.836;10.092;2023-07-02T12:42:03;16.17;;;11.35;;
12956;SDS011;6543;48.836;10.092;2023-07-02T12:44:30;17.65;;;11.77;;
12956;SDS011;6543;48.836;10.092;2023-07-02T12:46:57;23.25;;;12.50;;
12956;SDS011;6543;48.836;10.092;2023-07-02T12:49:23;27.50;;;12.57;;
12956;SDS011;6543;48.836;10.092;2023-07-02T12:51:50;22.55;;;11.95;;
12956;SDS011;6543;48.836;10.092;2023-07-02T12:54:19;21.35;;;11.57;;
12956;SDS011;6543;48.836;10.092;2023-07-02T12:56:45;20.77;;;12.23;;
12956;SDS011;6543;48.836;10.092;2023-07-02T12:59:13;18.15;;;11.73;;
12956;SDS011;6543;48.836;10.092;2023-07-02T13:01:40;19.27;;;12.43;;
12956;SDS011;6543;48.836;10.092;2023-07-02T13:04:07;16.55;;;11.70;;
12956;SDS011;6543;48.836;10.092;2023-07-02T13:06:34;20.90;;;11.55;;
12956;SDS011;6543;48.836;10.092;2023-07-02T13:09:05;17.65;;;10.95;;
12956;SDS011;6543;48.836;10.092;2023-07-02T13:11:33;20.42;;;10.00;;
12956;SDS011;6543;48.836;10.092;2023-07-02T13:14:00;21.00;;;11.43;;
12956;SDS011;6543;48.836;10.092;2023-07-02T13:16:27;16.30;;;11.30;;
12956;SDS011;6543;48.836;10.092;2023-07-02T13:18:54;22.33;;;11.45;;
12956;SDS011;6543;48.836;10.092;2023-07-02T13:21:21;18.52;;;12.38;;
12956;SDS011;6543;48.836;10.092;2023-07-02T13:23:48;28.95;;;11.73;;
12956;SDS011;6543;48.836;10.092;2023-07-02T13:26:15;19.83;;;10.38;;
12956;SDS011;6543;48.836;10.092;2023-07-02T13:28:44;18.92;;;12.52;;
12956;SDS011;6543;48.836;10.092;2023-07-02T13:31:12;21.60;;;13.10;;
12956;SDS011;6543;48.836;10.092;2023-07-02T13:33:39;18.52;;;11.57;;
12956;SDS011;6543;48.836;10.092;2023-07-02T13:36:06;22.00;;;12.77;;
12956;SDS011;6543;48.836;10.092;2023-07-02T13:38:33;19.42;;;11.32;;
12956;SDS011;6543;48.836;10.092;2023-07-02T13:41:00;22.42;;;13.32;;
12956;SDS011;6543;48.836;10.092;2023-07-02T13:43:27;19.23;;;12.13;;
12956;SDS011;6543;48.836;10.092;2023-07-02T13:45:55;19.98;;;10.95;;
12956;SDS011;6543;48.836;10.092;2023-07-02T13:48:22;15.38;;;10.45;;
12956;SDS011;6543;48.836;10.092;2023-07-02T13:50:49;21.70;;;12.85;;
12956;SDS011;6543;48.836;10.092;2023-07-02T13:53:16;17.80;;;11.85;;
12956;SDS011;6543;48.836;10.092;2023-07-02T13:55:43;19.05;;;10.63;;
12956;SDS011;6543;48.836;10.092;2023-07-02T13:58:10;19.88;;;11.40;;
12956;SDS011;6543;48.836;10.092;2023-07-02T14:00:38;17.50;;;11.23;;
12956;SDS011;6543;48.836;10.092;2023-07-02T14:03:05;15.65;;;11.82;;
12956;SDS011;6543;48.836;10.092;2023-07-02T14:05:32;19.02;;;11.93;;
12956;SDS011;6543;48.836;10.092;2023-07-02T14:07:59;19.02;;;12.35;;
12956;SDS011;6543;48.836;10.092;2023-07-02T14:10:26;21.67;;;12.48;;
12956;SDS011;6543;48.836;10.092;2023-07-02T14:12:54;19.45;;;12.05;;
12956;SDS011;6543;48.836;10.092;2023-07-02T14:15:21;17.10;;;11.30;;
12956;SDS011;6543;48.836;10.092;2023-07-02T14:17:49;20.20;;;12.18;;
12956;SDS011;6543;48.836;10.092;2023-07-02T14:20:16;19.30;;;12.45;;
12956;SDS011;6543;48.836;10.092;2023-07-02T14:22:44;21.02;;;12.35;;
12956;SDS011;6543;48.836;10.092;2023-07-02T14:25:10;21.58;;;12.80;;
12956;SDS011;6543;48.836;10.092;2023-07-02T14:27:37;18.08;;;12.05;;
12956;SDS011;6543;48.836;10.092;2023-07-02T14:30:05;21.33;;;13.88;;
12956;SDS011;6543;48.836;10.092;2023-07-02T14:32:33;22.77;;;12.20;;
12956;SDS011;6543;48.836;10.092;2023-07-02T14:35:02;22.95;;;11.90;;
12956;SDS011;6543;48.836;10.092;2023-07-02T14:37:30;18.08;;;12.35;;
12956;SDS011;6543;48.836;10.092;2023-07-02T14:39:56;20.13;;;12.30;;